| time (UTC) | temp F | wind direction | speed knots | gust knots | rain 1hr in | rain 24hr in | rain mn in | humidity % | barometer mb |
| 20260502162141 | 62 | 202 | 0.9 | 1.7 | 0.00 | 0.00 | 0.00 | 31 | 1014.7 |
| 20260502161638 | 62 | 131 | 0.0 | 0.9 | 0.00 | 0.00 | 0.00 | 32 | 1014.9 |
| 20260502161135 | 61 | 51 | 1.7 | 1.7 | 0.00 | 0.00 | 0.00 | 32 | 1014.7 |
| 20260502160633 | 61 | 127 | 0.9 | 0.9 | 0.00 | 0.00 | 0.00 | 33 | 1014.7 |
| 20260502160131 | 59 | 164 | 0.9 | 0.9 | 0.00 | 0.00 | 0.00 | 32 | 1014.6 |
| 20260502152045 | 59 | 115 | 1.7 | 1.7 | 0.00 | 0.00 | 0.00 | 33 | 1014.9 |
| 20260502151542 | 58 | 140 | 0.0 | 0.9 | 0.00 | 0.00 | 0.00 | 33 | 1014.5 |
| 20260502151040 | 57 | 131 | 1.7 | 1.7 | 0.00 | 0.00 | 0.00 | 35 | 1014.9 |
| 20260502150537 | 56 | 134 | 1.7 | 1.7 | 0.00 | 0.00 | 0.00 | 35 | 1014.8 |
| 20260502130422 | 37 | 130 | 0.0 | 0.9 | 0.00 | 0.00 | 0.00 | 60 | 1014.9 |
| 20260502123405 | 33 | 127 | 0.0 | 0.0 | 0.00 | 0.00 | 0.00 | 67 | 1014.8 |
| 20260502122902 | 36 | 123 | 0.9 | 0.9 | 0.00 | 0.00 | 0.00 | 64 | 1014.8 |
| 20260502122358 | 35 | 161 | 1.7 | 1.7 | 0.00 | 0.00 | 0.00 | 61 | 1015.2 |
| 20260502121856 | 36 | 115 | 1.7 | 1.7 | 0.00 | 0.00 | 0.00 | 59 | 1014.9 |
| 20260502121353 | 35 | 163 | 1.7 | 2.6 | 0.00 | 0.00 | 0.00 | 62 | 1014.8 |
| 20260502120851 | 34 | 158 | 1.7 | 1.7 | 0.00 | 0.00 | 0.00 | 64 | 1015.1 |
| 20260502120346 | 33 | 131 | 0.9 | 1.7 | 0.00 | 0.00 | 0.00 | 66 | 1014.9 |
| 20260502115844 | 33 | 110 | 1.7 | 1.7 | 0.00 | 0.00 | 0.00 | 65 | 1014.9 |
| 20260502115341 | 33 | 116 | 2.6 | 2.6 | 0.00 | 0.00 | 0.00 | 67 | 1014.9 |
| 20260502114837 | 33 | 105 | 2.6 | 2.6 | 0.00 | 0.00 | 0.00 | 64 | 1015.2 |
| 20260502114334 | 34 | 123 | 1.7 | 1.7 | 0.00 | 0.00 | 0.00 | 66 | 1015.1 |
| 20260502113831 | 34 | 127 | 0.9 | 0.9 | 0.00 | 0.00 | 0.00 | 65 | 1015.2 |
| 20260502113329 | 33 | 104 | 1.7 | 1.7 | 0.00 | 0.00 | 0.00 | 67 | 1015.1 |
| 20260502112827 | 33 | 99 | 2.6 | 2.6 | 0.00 | 0.00 | 0.00 | 67 | 1015.3 |
| 20260502112324 | 32 | 93 | 2.6 | 4.3 | 0.00 | 0.00 | 0.00 | 68 | 1015.3 |
| 20260502111821 | 31 | 108 | 0.9 | 1.7 | 0.00 | 0.00 | 0.00 | 68 | 1015.3 |
| 20260502111319 | 30 | 99 | 2.6 | 2.6 | 0.00 | 0.00 | 0.00 | 69 | 1015.2 |
| 20260502110817 | 32 | 116 | 0.9 | 1.7 | 0.00 | 0.00 | 0.00 | 68 | 1015.3 |
| 20260502110314 | 32 | 127 | 0.9 | 0.9 | 0.00 | 0.00 | 0.00 | 69 | 1015.2 |
| 20260502105812 | 33 | 128 | 0.9 | 0.9 | 0.00 | 0.00 | 0.00 | 68 | 1015.3 |
| 20260502105308 | 31 | 133 | 0.9 | 0.9 | 0.00 | 0.00 | 0.00 | 68 | 1015.1 |
| 20260502104806 | 31 | 127 | 0.9 | 0.9 | 0.00 | 0.00 | 0.00 | 72 | 1015.4 |
| 20260502104303 | 30 | 91 | 2.6 | 2.6 | 0.00 | 0.00 | 0.00 | 71 | 1015.4 |
| 20260502103800 | 30 | 128 | 0.0 | 0.0 | 0.00 | 0.00 | 0.00 | 72 | 1015.3 |
| 20260502103257 | 31 | 131 | 0.9 | 0.9 | 0.00 | 0.00 | 0.00 | 72 | 1015.4 |
| 20260502102755 | 29 | 138 | 0.9 | 1.7 | 0.00 | 0.00 | 0.00 | 73 | 1015.3 |
| 20260502102251 | 31 | 151 | 0.0 | 0.0 | 0.00 | 0.00 | 0.00 | 70 | 1015.4 |
| 20260502101749 | 32 | 147 | 0.0 | 0.0 | 0.00 | 0.00 | 0.00 | 68 | 1015.4 |
| 20260502101247 | 33 | 176 | 1.7 | 1.7 | 0.00 | 0.00 | 0.00 | 64 | 1015.2 |
| 20260502100745 | 31 | 165 | 1.7 | 1.7 | 0.00 | 0.00 | 0.00 | 68 | 1015.2 |
| 20260502100243 | 30 | 128 | 0.9 | 0.9 | 0.00 | 0.00 | 0.00 | 73 | 1015.3 |
| 20260502091217 | 32 | 130 | 0.9 | 1.7 | 0.00 | 0.00 | 0.00 | 69 | 1014.9 |
| 20260502090715 | 33 | 133 | 0.9 | 0.9 | 0.00 | 0.00 | 0.00 | 68 | 1014.7 |
| 20260502090211 | 33 | 140 | 0.0 | 0.0 | 0.00 | 0.00 | 0.00 | 67 | 1014.9 |
| 20260502071113 | 35 | 90 | 2.6 | 2.6 | 0.00 | 0.00 | 0.00 | 67 | 1015.5 |
| 20260502070611 | 35 | 89 | 1.7 | 1.7 | 0.00 | 0.00 | 0.00 | 64 | 1015.2 |
| 20260502070109 | 35 | 156 | 0.0 | 0.0 | 0.00 | 0.00 | 0.00 | 66 | 1015.1 |
| 20260502065607 | 33 | 136 | 0.0 | 0.0 | 0.00 | 0.00 | 0.00 | 68 | 1015.3 |
| 20260502065104 | 34 | 126 | 0.9 | 0.9 | 0.00 | 0.00 | 0.00 | 68 | 1015.2 |
| 20260502064603 | 35 | 132 | 0.0 | 0.9 | 0.00 | 0.00 | 0.00 | 65 | 1015.3 |
| 20260502064059 | 35 | 122 | 0.9 | 0.9 | 0.00 | 0.00 | 0.00 | 68 | 1015.3 |
| 20260502063557 | 35 | 135 | 0.0 | 0.0 | 0.00 | 0.00 | 0.00 | 65 | 1015.2 |
| 20260502063055 | 35 | 134 | 0.9 | 0.9 | 0.00 | 0.00 | 0.00 | 66 | 1015.4 |
| 20260502062551 | 37 | 139 | 1.7 | 1.7 | 0.00 | 0.00 | 0.00 | 62 | 1014.9 |
| 20260502062049 | 37 | 153 | 0.9 | 0.9 | 0.00 | 0.00 | 0.00 | 60 | 1015.1 |
| 20260502061547 | 38 | 154 | 0.9 | 0.9 | 0.00 | 0.00 | 0.00 | 60 | 1015.2 |
| 20260502061044 | 40 | 116 | 1.7 | 1.7 | 0.00 | 0.00 | 0.00 | 56 | 1015.3 |
| 20260502060539 | 39 | 94 | 4.3 | 4.3 | 0.00 | 0.00 | 0.00 | 56 | 1015.2 |
| 20260502060036 | 38 | 104 | 2.6 | 2.6 | 0.00 | 0.00 | 0.00 | 57 | 1015.1 |
| 20260502055534 | 38 | 116 | 0.9 | 0.9 | 0.00 | 0.00 | 0.00 | 60 | 1015.1 |
| 20260502055032 | 39 | 100 | 1.7 | 1.7 | 0.00 | 0.00 | 0.00 | 57 | 1015.2 |
| 20260502054531 | 38 | 104 | 2.6 | 2.6 | 0.00 | 0.00 | 0.00 | 59 | 1015.3 |
| 20260502054027 | 37 | 119 | 0.9 | 0.9 | 0.00 | 0.00 | 0.00 | 60 | 1015.3 |
| 20260502053524 | 35 | 90 | 3.5 | 4.3 | 0.00 | 0.00 | 0.00 | 65 | 1015.1 |
| 20260502053022 | 35 | 130 | 1.7 | 1.7 | 0.00 | 0.00 | 0.00 | 69 | 1015.2 |
| 20260502052520 | 36 | 111 | 2.6 | 2.6 | 0.00 | 0.00 | 0.00 | 68 | 1015.1 |
| 20260502052018 | 37 | 161 | 0.0 | 0.0 | 0.00 | 0.00 | 0.00 | 64 | 1015.3 |
| 20260502051516 | 38 | 181 | 0.9 | 0.9 | 0.00 | 0.00 | 0.00 | 67 | 1014.8 |
| 20260502051013 | 41 | 124 | 2.6 | 2.6 | 0.00 | 0.00 | 0.00 | 54 | 1014.9 |
| 20260502050509 | 42 | 112 | 2.6 | 2.6 | 0.00 | 0.00 | 0.00 | 53 | 1014.7 |
| 20260502050007 | 42 | 105 | 2.6 | 2.6 | 0.00 | 0.00 | 0.00 | 54 | 1014.9 |
| 20260502045503 | 42 | 110 | 4.3 | 5.2 | 0.00 | 0.00 | 0.00 | 52 | 1014.7 |
| 20260502045001 | 42 | 83 | 7.0 | 7.8 | 0.00 | 0.00 | 0.00 | 52 | 1015.2 |
| 20260502044456 | 41 | 80 | 7.0 | 8.7 | 0.00 | 0.00 | 0.00 | 53 | 1014.7 |
| 20260502043953 | 40 | 109 | 2.6 | 2.6 | 0.00 | 0.00 | 0.00 | 58 | 1014.9 |
| 20260502043451 | 41 | 134 | 0.9 | 0.9 | 0.00 | 0.00 | 0.00 | 55 | 1014.9 |
| 20260502042950 | 42 | 100 | 3.5 | 4.3 | 0.00 | 0.00 | 0.00 | 53 | 1015.1 |
| 20260502042447 | 41 | 88 | 4.3 | 6.1 | 0.00 | 0.00 | 0.00 | 55 | 1015.1 |
| 20260502041945 | 40 | 107 | 2.6 | 2.6 | 0.00 | 0.00 | 0.00 | 57 | 1015.2 |
| 20260502041442 | 42 | 142 | 3.5 | 4.3 | 0.00 | 0.00 | 0.00 | 55 | 1014.8 |
| 20260502040939 | 43 | 104 | 4.3 | 5.2 | 0.00 | 0.00 | 0.00 | 51 | 1014.9 |
| 20260502040435 | 43 | 107 | 4.3 | 5.2 | 0.00 | 0.00 | 0.00 | 51 | 1014.9 |
| 20260502035932 | 43 | 93 | 4.3 | 5.2 | 0.00 | 0.00 | 0.00 | 52 | 1014.9 |
| 20260502035428 | 43 | 100 | 4.3 | 5.2 | 0.00 | 0.00 | 0.00 | 51 | 1014.8 |
| 20260502034926 | 44 | 99 | 5.2 | 6.1 | 0.00 | 0.00 | 0.00 | 49 | 1014.8 |
| 20260502034425 | 44 | 85 | 7.0 | 7.8 | 0.00 | 0.00 | 0.00 | 48 | 1014.8 |
| 20260502033923 | 45 | 91 | 4.3 | 5.2 | 0.00 | 0.00 | 0.00 | 49 | 1014.6 |
| 20260502033420 | 44 | 79 | 6.1 | 7.8 | 0.00 | 0.00 | 0.00 | 50 | 1014.6 |
| 20260502032916 | 45 | 87 | 6.1 | 7.0 | 0.00 | 0.00 | 0.00 | 48 | 1014.3 |
| 20260502032413 | 45 | 83 | 7.0 | 7.8 | 0.00 | 0.00 | 0.00 | 48 | 1014.3 |
| 20260502031910 | 44 | 73 | 5.2 | 6.1 | 0.00 | 0.00 | 0.00 | 51 | 1014.2 |
| 20260502031409 | 46 | 88 | 6.1 | 7.0 | 0.00 | 0.00 | 0.00 | 47 | 1014.0 |
| 20260502030907 | 44 | 84 | 6.1 | 7.0 | 0.00 | 0.00 | 0.00 | 51 | 1014.1 |
| 20260502030404 | 44 | 67 | 6.1 | 6.1 | 0.00 | 0.00 | 0.00 | 55 | 1013.9 |
| 20260502025902 | 46 | 77 | 4.3 | 5.2 | 0.00 | 0.00 | 0.00 | 52 | 1013.9 |
| 20260502025359 | 44 | 97 | 4.3 | 5.2 | 0.00 | 0.00 | 0.00 | 52 | 1013.7 |
| 20260502024857 | 44 | 73 | 3.5 | 4.3 | 0.00 | 0.00 | 0.00 | 51 | 1014.0 |
| 20260502024354 | 43 | 94 | 2.6 | 4.3 | 0.00 | 0.00 | 0.00 | 59 | 1013.7 |
| 20260502023852 | 45 | 128 | 0.9 | 0.9 | 0.00 | 0.00 | 0.00 | 54 | 1013.4 |
| 20260502023349 | 45 | 130 | 0.9 | 0.9 | 0.00 | 0.00 | 0.00 | 52 | 1013.5 |
| 20260502022847 | 45 | 134 | 0.0 | 0.0 | 0.00 | 0.00 | 0.00 | 55 | 1013.4 |
| 20260502022343 | 47 | 132 | 2.6 | 2.6 | 0.00 | 0.00 | 0.00 | 53 | 1013.6 |
| 20260502021840 | 49 | 130 | 1.7 | 1.7 | 0.00 | 0.00 | 0.00 | 49 | 1013.5 |
| 20260502021337 | 51 | 141 | 0.0 | 0.0 | 0.00 | 0.00 | 0.00 | 46 | 1013.4 |
| 20260502020835 | 53 | 135 | 0.0 | 0.0 | 0.00 | 0.00 | 0.00 | 46 | 1013.5 |
| 20260502020332 | 56 | 214 | 1.7 | 1.7 | 0.00 | 0.00 | 0.00 | 37 | 1013.5 |
| 20260502015829 | 58 | 140 | 0.0 | 0.0 | 0.00 | 0.00 | 0.00 | 33 | 1013.4 |
| 20260502015326 | 58 | 298 | 2.6 | 2.6 | 0.00 | 0.00 | 0.00 | 32 | 1013.4 |
| 20260502014824 | 58 | 317 | 2.6 | 2.6 | 0.00 | 0.00 | 0.00 | 33 | 1013.4 |
| 20260502014321 | 59 | 315 | 1.7 | 1.7 | 0.00 | 0.00 | 0.00 | 33 | 1013.1 |
| 20260502013816 | 60 | 320 | 1.7 | 1.7 | 0.00 | 0.00 | 0.00 | 30 | 1013.1 |
| 20260502013313 | 60 | 231 | 0.9 | 1.7 | 0.00 | 0.00 | 0.00 | 27 | 1013.3 |
| 20260502012809 | 60 | 148 | 0.0 | 0.9 | 0.00 | 0.00 | 0.00 | 30 | 1013.1 |
| 20260502012307 | 60 | 19 | 1.7 | 1.7 | 0.00 | 0.00 | 0.00 | 29 | 1013.0 |
| 20260502011804 | 61 | 317 | 2.6 | 2.6 | 0.00 | 0.00 | 0.00 | 25 | 1013.0 |
| 20260502011300 | 61 | 217 | 3.5 | 4.3 | 0.00 | 0.00 | 0.00 | 25 | 1013.3 |
| 20260502010757 | 60 | 290 | 3.5 | 5.2 | 0.00 | 0.00 | 0.00 | 26 | 1013.3 |
| 20260502010253 | 61 | 95 | 0.9 | 0.9 | 0.00 | 0.00 | 0.00 | 30 | 1013.1 |
| 20260502005751 | 60 | 329 | 3.5 | 4.3 | 0.00 | 0.00 | 0.00 | 27 | 1013.4 |
| 20260502005248 | 62 | 136 | 0.9 | 0.9 | 0.00 | 0.00 | 0.00 | 25 | 1013.0 |
| 20260502004745 | 61 | 336 | 2.6 | 2.6 | 0.00 | 0.00 | 0.00 | 25 | 1012.9 |
| 20260502004241 | 62 | 310 | 1.7 | 1.7 | 0.00 | 0.00 | 0.00 | 23 | 1013.1 |
| 20260502003739 | 62 | 192 | 1.7 | 1.7 | 0.00 | 0.00 | 0.00 | 26 | 1013.1 |
| 20260502003237 | 62 | 5 | 0.9 | 1.7 | 0.00 | 0.00 | 0.00 | 26 | 1013.1 |
| 20260502002732 | 62 | 333 | 3.5 | 4.3 | 0.00 | 0.00 | 0.00 | 25 | 1013.1 |
| 20260502002230 | 62 | 255 | 4.3 | 6.1 | 0.00 | 0.00 | 0.00 | 25 | 1013.1 |
| 20260502001727 | 62 | 257 | 4.3 | 5.2 | 0.00 | 0.00 | 0.00 | 24 | 1013.1 |
| 20260502001225 | 62 | 174 | 1.7 | 1.7 | 0.00 | 0.00 | 0.00 | 25 | 1013.3 |
| 20260502000722 | 62 | 33 | 1.7 | 1.7 | 0.00 | 0.00 | 0.00 | 25 | 1013.0 |
| 20260502000220 | 63 | 251 | 2.6 | 5.2 | 0.00 | 0.00 | 0.00 | 28 | 1013.4 |
| 20260501235715 | 63 | 168 | 0.0 | 0.0 | 0.00 | 0.00 | 0.00 | 23 | 1013.3 |
| 20260501235212 | 63 | 263 | 4.3 | 5.2 | 0.00 | 0.00 | 0.00 | 23 | 1013.3 |
| 20260501234708 | 63 | 262 | 2.6 | 4.3 | 0.00 | 0.00 | 0.00 | 21 | 1013.4 |
| 20260501234205 | 62 | 163 | 0.9 | 0.9 | 0.00 | 0.00 | 0.00 | 22 | 1013.4 |
| 20260501233703 | 62 | 201 | 2.6 | 2.6 | 0.00 | 0.00 | 0.00 | 22 | 1013.4 |
| 20260501233200 | 63 | 344 | 3.5 | 4.3 | 0.00 | 0.00 | 0.00 | 22 | 1013.5 |
| 20260501232655 | 62 | 113 | 1.7 | 1.7 | 0.00 | 0.00 | 0.00 | 22 | 1013.5 |
| 20260501232153 | 63 | 261 | 1.7 | 1.7 | 0.00 | 0.00 | 0.00 | 23 | 1013.3 |
| 20260501231651 | 62 | 189 | 0.0 | 1.7 | 0.00 | 0.00 | 0.00 | 24 | 1013.3 |
| 20260501231149 | 62 | 27 | 1.7 | 1.7 | 0.00 | 0.00 | 0.00 | 27 | 1013.1 |
| 20260501230647 | 62 | 352 | 5.2 | 6.1 | 0.00 | 0.00 | 0.00 | 24 | 1013.4 |
| 20260501230145 | 63 | 315 | 2.6 | 2.6 | 0.00 | 0.00 | 0.00 | 23 | 1013.5 |
| 20260501225642 | 62 | 90 | 2.6 | 2.6 | 0.00 | 0.00 | 0.00 | 22 | 1013.5 |
| 20260501225138 | 64 | 14 | 4.3 | 5.2 | 0.00 | 0.00 | 0.00 | 28 | 1013.4 |
| 20260501224635 | 62 | 153 | 0.0 | 0.0 | 0.00 | 0.00 | 0.00 | 29 | 1013.5 |
| 20260501224133 | 62 | 198 | 0.0 | 0.0 | 0.00 | 0.00 | 0.00 | 23 | 1013.5 |
| 20260501223629 | 62 | 184 | 0.0 | 0.9 | 0.00 | 0.00 | 0.00 | 25 | 1013.6 |
| 20260501223126 | 61 | 0 | 2.6 | 2.6 | 0.00 | 0.00 | 0.00 | 22 | 1013.6 |
| 20260501222621 | 61 | 186 | 0.9 | 0.9 | 0.00 | 0.00 | 0.00 | 27 | 1013.6 |
| 20260501222119 | 62 | 90 | 2.6 | 2.6 | 0.00 | 0.00 | 0.00 | 23 | 1013.6 |
| 20260501221615 | 61 | 316 | 4.3 | 6.1 | 0.00 | 0.00 | 0.00 | 30 | 1013.7 |
| 20260501221113 | 61 | 127 | 0.0 | 0.0 | 0.00 | 0.00 | 0.00 | 27 | 1013.9 |
| 20260501220611 | 62 | 14 | 2.6 | 4.3 | 0.00 | 0.00 | 0.00 | 26 | 1013.7 |
| 20260501220107 | 62 | 21 | 1.7 | 2.6 | 0.00 | 0.00 | 0.00 | 22 | 1013.7 |
| 20260501215604 | 61 | 110 | 1.7 | 1.7 | 0.00 | 0.00 | 0.00 | 24 | 1014.0 |
| 20260501215059 | 62 | 353 | 1.7 | 2.6 | 0.00 | 0.00 | 0.00 | 23 | 1014.2 |
| 20260501214554 | 60 | 43 | 2.6 | 2.6 | 0.00 | 0.00 | 0.00 | 25 | 1014.0 |
| 20260501214050 | 60 | 103 | 2.6 | 2.6 | 0.00 | 0.00 | 0.00 | 25 | 1014.2 |
| 20260501213547 | 59 | 15 | 5.2 | 7.0 | 0.00 | 0.00 | 0.00 | 24 | 1014.5 |
| 20260501213043 | 61 | 27 | 4.3 | 6.1 | 0.00 | 0.00 | 0.00 | 24 | 1014.3 |
| 20260501212540 | 61 | 15 | 2.6 | 2.6 | 0.00 | 0.00 | 0.00 | 26 | 1014.5 |
| 20260501212037 | 60 | 114 | 1.7 | 1.7 | 0.00 | 0.00 | 0.00 | 26 | 1014.6 |
| 20260501211533 | 61 | 220 | 2.6 | 2.6 | 0.00 | 0.00 | 0.00 | 26 | 1014.3 |
| 20260501211032 | 60 | 198 | 1.7 | 2.6 | 0.00 | 0.00 | 0.00 | 24 | 1014.2 |
| 20260501210527 | 60 | 277 | 4.3 | 4.3 | 0.00 | 0.00 | 0.00 | 27 | 1014.3 |
| 20260501210025 | 60 | 323 | 2.6 | 2.6 | 0.00 | 0.00 | 0.00 | 24 | 1014.7 |
| 20260501205521 | 60 | 182 | 2.6 | 2.6 | 0.00 | 0.00 | 0.00 | 25 | 1014.2 |
| 20260501205019 | 59 | 174 | 1.7 | 1.7 | 0.00 | 0.00 | 0.00 | 25 | 1014.3 |
| 20260501204515 | 59 | 133 | 2.6 | 4.3 | 0.00 | 0.00 | 0.00 | 24 | 1014.7 |
| 20260501204011 | 61 | 307 | 4.3 | 5.2 | 0.00 | 0.00 | 0.00 | 29 | 1014.6 |
| 20260501203508 | 59 | 194 | 1.7 | 1.7 | 0.00 | 0.00 | 0.00 | 28 | 1014.6 |
| 20260501203006 | 57 | 205 | 2.6 | 4.3 | 0.00 | 0.00 | 0.00 | 27 | 1014.6 |
| 20260501202502 | 57 | 250 | 4.3 | 6.1 | 0.00 | 0.00 | 0.00 | 29 | 1014.6 |
| 20260501201958 | 58 | 145 | 0.0 | 0.9 | 0.00 | 0.00 | 0.00 | 26 | 1014.5 |
| 20260501201456 | 59 | 353 | 5.2 | 7.0 | 0.00 | 0.00 | 0.00 | 26 | 1014.7 |
| 20260501200953 | 59 | 326 | 4.3 | 6.1 | 0.00 | 0.00 | 0.00 | 29 | 1014.8 |
| 20260501200450 | 57 | 139 | 1.7 | 1.7 | 0.00 | 0.00 | 0.00 | 27 | 1014.6 |
| 20260501195947 | 57 | 105 | 0.0 | 0.9 | 0.00 | 0.00 | 0.00 | 31 | 1014.8 |
| 20260501195444 | 57 | 103 | 4.3 | 5.2 | 0.00 | 0.00 | 0.00 | 29 | 1014.8 |
| 20260501194939 | 57 | 135 | 1.7 | 1.7 | 0.00 | 0.00 | 0.00 | 25 | 1015.3 |
| 20260501194435 | 58 | 67 | 1.7 | 2.6 | 0.00 | 0.00 | 0.00 | 31 | 1015.1 |
| 20260501193931 | 57 | 311 | 3.5 | 5.2 | 0.00 | 0.00 | 0.00 | 27 | 1014.8 |
| 20260501193430 | 56 | 202 | 1.7 | 1.7 | 0.00 | 0.00 | 0.00 | 31 | 1015.1 |
| 20260501192927 | 57 | 25 | 1.7 | 2.6 | 0.00 | 0.00 | 0.00 | 28 | 1014.9 |
| 20260501192424 | 57 | 157 | 0.9 | 1.7 | 0.00 | 0.00 | 0.00 | 30 | 1014.9 |
| 20260501191922 | 57 | 256 | 2.6 | 2.6 | 0.00 | 0.00 | 0.00 | 26 | 1014.9 |
| 20260501191419 | 57 | 207 | 2.6 | 2.6 | 0.00 | 0.00 | 0.00 | 28 | 1015.1 |
| 20260501190915 | 56 | 140 | 0.9 | 0.9 | 0.00 | 0.00 | 0.00 | 26 | 1015.1 |
| 20260501190412 | 55 | 40 | 2.6 | 2.6 | 0.00 | 0.00 | 0.00 | 28 | 1014.9 |
| 20260501185911 | 55 | 164 | 1.7 | 1.7 | 0.00 | 0.00 | 0.00 | 29 | 1015.3 |
| 20260501185408 | 56 | 217 | 3.5 | 4.3 | 0.00 | 0.00 | 0.00 | 31 | 1015.2 |
| 20260501184904 | 55 | 203 | 2.6 | 2.6 | 0.00 | 0.00 | 0.00 | 34 | 1015.2 |
| 20260501184400 | 56 | 347 | 2.6 | 2.6 | 0.00 | 0.00 | 0.00 | 31 | 1015.3 |
| 20260501183855 | 56 | 128 | 1.7 | 2.6 | 0.00 | 0.00 | 0.00 | 35 | 1015.3 |
| 20260501183353 | 54 | 137 | 2.6 | 2.6 | 0.00 | 0.00 | 0.00 | 35 | 1015.4 |
| 20260501182849 | 55 | 15 | 3.5 | 4.3 | 0.00 | 0.00 | 0.00 | 35 | 1015.4 |
| 20260501182346 | 54 | 117 | 0.9 | 0.9 | 0.00 | 0.00 | 0.00 | 32 | 1015.5 |
| 20260501181843 | 54 | 3 | 3.5 | 4.3 | 0.00 | 0.00 | 0.00 | 35 | 1015.8 |
| 20260501181340 | 54 | 66 | 2.6 | 4.3 | 0.00 | 0.00 | 0.00 | 35 | 1015.5 |
| 20260501180837 | 53 | 1 | 4.3 | 5.2 | 0.00 | 0.00 | 0.00 | 35 | 1015.5 |
| 20260501180333 | 55 | 53 | 2.6 | 2.6 | 0.00 | 0.00 | 0.00 | 36 | 1015.7 |
| 20260501175831 | 55 | 329 | 3.5 | 6.1 | 0.00 | 0.00 | 0.00 | 37 | 1015.4 |
| 20260501175327 | 54 | 201 | 2.6 | 4.3 | 0.00 | 0.00 | 0.00 | 34 | 1015.8 |
| 20260501174824 | 53 | 236 | 2.6 | 2.6 | 0.00 | 0.00 | 0.00 | 36 | 1015.5 |
| 20260501174321 | 54 | 150 | 0.0 | 0.9 | 0.00 | 0.00 | 0.00 | 36 | 1015.7 |
| 20260501173820 | 53 | 198 | 1.7 | 1.7 | 0.00 | 0.00 | 0.00 | 36 | 1015.7 |
| 20260501173317 | 53 | 186 | 1.7 | 1.7 | 0.00 | 0.00 | 0.00 | 38 | 1015.8 |
| 20260501172812 | 53 | 145 | 0.0 | 0.9 | 0.00 | 0.00 | 0.00 | 37 | 1015.9 |
| 20260501172307 | 52 | 355 | 2.6 | 2.6 | 0.00 | 0.00 | 0.00 | 35 | 1015.7 |
| 20260501171803 | 51 | 219 | 3.5 | 4.3 | 0.00 | 0.00 | 0.00 | 38 | 1015.7 |
| 20260501171300 | 51 | 267 | 1.7 | 1.7 | 0.00 | 0.00 | 0.00 | 34 | 1015.9 |
| 20260501170757 | 52 | 223 | 2.6 | 5.2 | 0.00 | 0.00 | 0.00 | 38 | 1015.8 |
| 20260501170254 | 52 | 188 | 0.9 | 0.9 | 0.00 | 0.00 | 0.00 | 38 | 1016.0 |
| 20260501165751 | 50 | 182 | 2.6 | 2.6 | 0.00 | 0.00 | 0.00 | 40 | 1015.9 |
| 20260501165249 | 51 | 226 | 2.6 | 4.3 | 0.00 | 0.00 | 0.00 | 35 | 1015.9 |
| 20260501164747 | 51 | 247 | 2.6 | 2.6 | 0.00 | 0.00 | 0.00 | 37 | 1015.9 |
| 20260501164243 | 50 | 244 | 4.3 | 4.3 | 0.00 | 0.00 | 0.00 | 41 | 1015.8 |
| 20260501163739 | 50 | 233 | 3.5 | 4.3 | 0.00 | 0.00 | 0.00 | 40 | 1015.9 |
| 20260501163237 | 50 | 214 | 3.5 | 4.3 | 0.00 | 0.00 | 0.00 | 44 | 1015.9 |
| 20260501162732 | 50 | 170 | 0.9 | 0.9 | 0.00 | 0.00 | 0.00 | 45 | 1015.9 |
| 20260501162229 | 50 | 262 | 3.5 | 4.3 | 0.00 | 0.00 | 0.00 | 43 | 1015.8 |